sensor_id;sensor_type;location;lat;lon;timestamp;pressure;altitude;pressure_sealevel;temperature;humidity
74613;BME280;63119;51.788;8.824;2023-03-23T00:01:20;98970.75;;;13.18;67.70
74613;BME280;63119;51.788;8.824;2023-03-23T00:03:50;98971.47;;;13.10;67.68
74613;BME280;63119;51.788;8.824;2023-03-23T00:06:18;98975.69;;;13.13;67.35
74613;BME280;63119;51.788;8.824;2023-03-23T00:08:45;98971.59;;;13.19;67.76
74613;BME280;63119;51.788;8.824;2023-03-23T00:11:19;98976.19;;;13.17;67.82
74613;BME280;63119;51.788;8.824;2023-03-23T00:13:46;98973.84;;;13.13;67.80
74613;BME280;63119;51.788;8.824;2023-03-23T00:16:13;98969.38;;;13.14;67.36
74613;BME280;63119;51.788;8.824;2023-03-23T00:18:49;98971.91;;;13.16;67.94
74613;BME280;63119;51.788;8.824;2023-03-23T00:21:22;98967.16;;;13.09;67.44
74613;BME280;63119;51.788;8.824;2023-03-23T00:24:06;98965.88;;;13.13;67.75
74613;BME280;63119;51.788;8.824;2023-03-23T00:26:34;98955.69;;;13.09;68.60
74613;BME280;63119;51.788;8.824;2023-03-23T00:29:02;98951.22;;;13.09;68.62
74613;BME280;63119;51.788;8.824;2023-03-23T00:31:28;98958.59;;;13.06;68.53
74613;BME280;63119;51.788;8.824;2023-03-23T00:33:59;98948.13;;;13.04;68.62
74613;BME280;63119;51.788;8.824;2023-03-23T00:36:27;98952.31;;;13.07;68.84
74613;BME280;63119;51.788;8.824;2023-03-23T00:38:54;98945.16;;;13.07;68.89
74613;BME280;63119;51.788;8.824;2023-03-23T00:41:23;98942.81;;;13.04;68.43
74613;BME280;63119;51.788;8.824;2023-03-23T00:43:48;98945.47;;;13.04;68.16
74613;BME280;63119;51.788;8.824;2023-03-23T00:46:13;98951.47;;;13.06;68.23
74613;BME280;63119;51.788;8.824;2023-03-23T00:48:39;98948.13;;;13.04;68.95
74613;BME280;63119;51.788;8.824;2023-03-23T00:51:09;98937.50;;;13.04;68.11
74613;BME280;63119;51.788;8.824;2023-03-23T00:53:41;98946.16;;;13.06;68.25
74613;BME280;63119;51.788;8.824;2023-03-23T00:56:07;98945.75;;;13.01;68.84
74613;BME280;63119;51.788;8.824;2023-03-23T00:58:33;98953.44;;;13.04;68.81
74613;BME280;63119;51.788;8.824;2023-03-23T01:00:58;98942.69;;;13.06;68.90
74613;BME280;63119;51.788;8.824;2023-03-23T01:03:24;98937.66;;;13.03;69.17
74613;BME280;63119;51.788;8.824;2023-03-23T01:05:51;98932.75;;;12.98;69.03
74613;BME280;63119;51.788;8.824;2023-03-23T01:08:16;98935.69;;;13.05;69.21
74613;BME280;63119;51.788;8.824;2023-03-23T01:10:44;98927.44;;;12.98;69.54
74613;BME280;63119;51.788;8.824;2023-03-23T01:13:10;98929.88;;;12.92;70.60
74613;BME280;63119;51.788;8.824;2023-03-23T01:15:36;98931.13;;;12.88;70.77
74613;BME280;63119;51.788;8.824;2023-03-23T01:18:01;98924.31;;;12.85;70.97
74613;BME280;63119;51.788;8.824;2023-03-23T01:20:27;98924.97;;;12.87;71.01
74613;BME280;63119;51.788;8.824;2023-03-23T01:22:54;98916.06;;;12.79;71.86
74613;BME280;63119;51.788;8.824;2023-03-23T01:25:25;98909.66;;;12.72;72.78
74613;BME280;63119;51.788;8.824;2023-03-23T01:27:50;98901.00;;;12.70;73.16
74613;BME280;63119;51.788;8.824;2023-03-23T01:30:15;98901.97;;;12.69;73.36
74613;BME280;63119;51.788;8.824;2023-03-23T01:32:41;98903.66;;;12.70;73.18
74613;BME280;63119;51.788;8.824;2023-03-23T01:35:06;98905.31;;;12.71;73.00
74613;BME280;63119;51.788;8.824;2023-03-23T01:37:32;98909.66;;;12.62;73.71
74613;BME280;63119;51.788;8.824;2023-03-23T01:39:57;98906.72;;;12.65;73.16
74613;BME280;63119;51.788;8.824;2023-03-23T01:42:30;98904.91;;;12.66;73.36
74613;BME280;63119;51.788;8.824;2023-03-23T01:45:28;98908.13;;;12.69;73.08
74613;BME280;63119;51.788;8.824;2023-03-23T01:48:07;98909.38;;;12.65;74.09
74613;BME280;63119;51.788;8.824;2023-03-23T01:50:39;98906.03;;;12.63;74.01
74613;BME280;63119;51.788;8.824;2023-03-23T01:53:07;98904.78;;;12.67;74.20
74613;BME280;63119;51.788;8.824;2023-03-23T01:55:35;98906.63;;;12.57;74.25
74613;BME280;63119;51.788;8.824;2023-03-23T01:58:03;98902.72;;;12.61;74.42
74613;BME280;63119;51.788;8.824;2023-03-23T02:00:29;98907.84;;;12.63;73.53
74613;BME280;63119;51.788;8.824;2023-03-23T02:02:55;98910.38;;;12.64;74.98
74613;BME280;63119;51.788;8.824;2023-03-23T02:05:34;98893.75;;;12.62;74.60
74613;BME280;63119;51.788;8.824;2023-03-23T02:08:03;98898.47;;;12.68;74.28
74613;BME280;63119;51.788;8.824;2023-03-23T02:10:32;98912.19;;;12.64;73.99
74613;BME280;63119;51.788;8.824;2023-03-23T02:12:59;98898.09;;;12.63;74.36
74613;BME280;63119;51.788;8.824;2023-03-23T02:15:29;98898.09;;;12.63;74.06
74613;BME280;63119;51.788;8.824;2023-03-23T02:18:08;98891.25;;;12.60;74.76
74613;BME280;63119;51.788;8.824;2023-03-23T02:21:01;98884.81;;;12.63;74.72
74613;BME280;63119;51.788;8.824;2023-03-23T02:23:47;98895.31;;;12.55;74.30
74613;BME280;63119;51.788;8.824;2023-03-23T02:29:07;98885.38;;;12.57;74.93
74613;BME280;63119;51.788;8.824;2023-03-23T02:34:29;98876.47;;;12.58;75.04
74613;BME280;63119;51.788;8.824;2023-03-23T02:37:03;98887.34;;;12.55;75.09
74613;BME280;63119;51.788;8.824;2023-03-23T02:39:34;98883.31;;;12.51;74.87
74613;BME280;63119;51.788;8.824;2023-03-23T02:42:05;98885.97;;;12.51;75.39
74613;BME280;63119;51.788;8.824;2023-03-23T02:44:31;98886.25;;;12.48;75.64
74613;BME280;63119;51.788;8.824;2023-03-23T02:47:00;98879.53;;;12.44;75.82
74613;BME280;63119;51.788;8.824;2023-03-23T02:49:29;98889.47;;;12.42;75.74
74613;BME280;63119;51.788;8.824;2023-03-23T02:51:58;98883.88;;;12.45;75.30
74613;BME280;63119;51.788;8.824;2023-03-23T02:54:24;98879.81;;;12.41;76.23
74613;BME280;63119;51.788;8.824;2023-03-23T02:56:52;98891.00;;;12.35;76.62
74613;BME280;63119;51.788;8.824;2023-03-23T02:59:19;98909.84;;;12.32;76.85
74613;BME280;63119;51.788;8.824;2023-03-23T03:01:49;98902.47;;;12.26;78.34
74613;BME280;63119;51.788;8.824;2023-03-23T03:04:18;98897.31;;;12.24;77.71
74613;BME280;63119;51.788;8.824;2023-03-23T03:07:49;98905.84;;;12.28;78.72
74613;BME280;63119;51.788;8.824;2023-03-23T03:09:55;98899.13;;;12.24;78.38
74613;BME280;63119;51.788;8.824;2023-03-23T03:12:36;98903.59;;;12.23;78.92
74613;BME280;63119;51.788;8.824;2023-03-23T03:15:11;98896.31;;;12.25;79.32
74613;BME280;63119;51.788;8.824;2023-03-23T03:17:45;98880.44;;;12.16;79.82
74613;BME280;63119;51.788;8.824;2023-03-23T03:20:12;98846.81;;;11.87;81.34
74613;BME280;63119;51.788;8.824;2023-03-23T03:22:41;98836.63;;;11.83;81.39
74613;BME280;63119;51.788;8.824;2023-03-23T03:25:10;98841.94;;;11.73;82.19
74613;BME280;63119;51.788;8.824;2023-03-23T03:27:38;98846.13;;;11.76;82.17
74613;BME280;63119;51.788;8.824;2023-03-23T03:30:09;98847.94;;;11.75;81.26
74613;BME280;63119;51.788;8.824;2023-03-23T03:32:41;98852.78;;;11.80;81.98
74613;BME280;63119;51.788;8.824;2023-03-23T03:35:09;98845.84;;;11.79;81.84
74613;BME280;63119;51.788;8.824;2023-03-23T03:37:35;98833.72;;;11.76;80.96
74613;BME280;63119;51.788;8.824;2023-03-23T03:40:17;98840.66;;;11.77;80.61
74613;BME280;63119;51.788;8.824;2023-03-23T03:42:44;98849.75;;;11.84;80.74
74613;BME280;63119;51.788;8.824;2023-03-23T03:45:11;98846.81;;;11.87;81.11
74613;BME280;63119;51.788;8.824;2023-03-23T03:47:37;98836.09;;;11.79;80.92
74613;BME280;63119;51.788;8.824;2023-03-23T03:50:03;98843.47;;;11.85;80.48
74613;BME280;63119;51.788;8.824;2023-03-23T03:52:28;98844.31;;;11.76;80.70
74613;BME280;63119;51.788;8.824;2023-03-23T03:54:53;98824.75;;;11.77;80.85
74613;BME280;63119;51.788;8.824;2023-03-23T03:57:20;98828.22;;;11.68;81.33
74613;BME280;63119;51.788;8.824;2023-03-23T03:59:45;98817.78;;;11.67;80.52
74613;BME280;63119;51.788;8.824;2023-03-23T04:02:12;98816.25;;;11.64;81.26
74613;BME280;63119;51.788;8.824;2023-03-23T04:04:40;98819.88;;;11.63;81.00
74613;BME280;63119;51.788;8.824;2023-03-23T04:07:06;98813.75;;;11.72;80.07
74613;BME280;63119;51.788;8.824;2023-03-23T04:09:32;98802.03;;;11.75;79.12
74613;BME280;63119;51.788;8.824;2023-03-23T04:11:57;98790.88;;;11.81;78.40
74613;BME280;63119;51.788;8.824;2023-03-23T04:14:22;98790.75;;;11.73;77.71
74613;BME280;63119;51.788;8.824;2023-03-23T04:16:47;98788.22;;;11.81;78.01
74613;BME280;63119;51.788;8.824;2023-03-23T04:19:12;98789.19;;;11.80;78.37
74613;BME280;63119;51.788;8.824;2023-03-23T04:21:38;98776.09;;;11.78;78.07
74613;BME280;63119;51.788;8.824;2023-03-23T04:24:04;98795.06;;;11.83;78.52
74613;BME280;63119;51.788;8.824;2023-03-23T04:26:29;98789.06;;;11.81;78.68
74613;BME280;63119;51.788;8.824;2023-03-23T04:28:55;98798.97;;;11.79;78.61
74613;BME280;63119;51.788;8.824;2023-03-23T04:31:22;98804.00;;;11.82;79.21
74613;BME280;63119;51.788;8.824;2023-03-23T04:33:50;98790.19;;;11.79;78.97
74613;BME280;63119;51.788;8.824;2023-03-23T04:36:17;98803.16;;;11.72;79.61
74613;BME280;63119;51.788;8.824;2023-03-23T04:38:43;98809.03;;;11.76;79.85
74613;BME280;63119;51.788;8.824;2023-03-23T04:41:08;98803.69;;;11.66;80.28
74613;BME280;63119;51.788;8.824;2023-03-23T04:43:34;98810.41;;;11.70;79.28
74613;BME280;63119;51.788;8.824;2023-03-23T04:46:06;98817.38;;;11.71;78.92
74613;BME280;63119;51.788;8.824;2023-03-23T04:48:33;98805.09;;;11.80;78.47
74613;BME280;63119;51.788;8.824;2023-03-23T04:51:01;98810.66;;;11.86;78.30
74613;BME280;63119;51.788;8.824;2023-03-23T04:53:28;98813.03;;;11.80;78.16
74613;BME280;63119;51.788;8.824;2023-03-23T04:55:54;98820.19;;;11.79;78.03
74613;BME280;63119;51.788;8.824;2023-03-23T04:58:19;98828.13;;;11.79;77.26
74613;BME280;63119;51.788;8.824;2023-03-23T05:00:44;98830.50;;;11.82;77.04
74613;BME280;63119;51.788;8.824;2023-03-23T05:03:15;98829.38;;;11.85;76.43
74613;BME280;63119;51.788;8.824;2023-03-23T05:05:41;98829.38;;;11.85;75.86
74613;BME280;63119;51.788;8.824;2023-03-23T05:08:07;98831.31;;;11.92;74.67
74613;BME280;63119;51.788;8.824;2023-03-23T05:10:32;98837.75;;;11.99;73.72
74613;BME280;63119;51.788;8.824;2023-03-23T05:12:57;98834.81;;;12.02;73.69
74613;BME280;63119;51.788;8.824;2023-03-23T05:15:22;98845.41;;;12.02;74.08
74613;BME280;63119;51.788;8.824;2023-03-23T05:17:51;98835.09;;;11.99;74.21
74613;BME280;63119;51.788;8.824;2023-03-23T05:20:16;98832.16;;;12.02;74.76
74613;BME280;63119;51.788;8.824;2023-03-23T05:22:45;98836.72;;;12.10;74.43
74613;BME280;63119;51.788;8.824;2023-03-23T05:25:13;98850.16;;;12.09;74.24
74613;BME280;63119;51.788;8.824;2023-03-23T05:27:39;98851.97;;;12.08;74.44
74613;BME280;63119;51.788;8.824;2023-03-23T05:30:07;98851.97;;;12.08;74.76
74613;BME280;63119;51.788;8.824;2023-03-23T05:32:33;98834.94;;;12.01;75.19
74613;BME280;63119;51.788;8.824;2023-03-23T05:34:59;98841.06;;;12.01;75.10
74613;BME280;63119;51.788;8.824;2023-03-23T05:37:26;98842.59;;;12.04;74.85
74613;BME280;63119;51.788;8.824;2023-03-23T05:39:53;98844.28;;;12.05;74.73
74613;BME280;63119;51.788;8.824;2023-03-23T05:42:21;98829.78;;;11.99;75.73
74613;BME280;63119;51.788;8.824;2023-03-23T05:44:47;98833.84;;;12.03;75.40
74613;BME280;63119;51.788;8.824;2023-03-23T05:47:13;98830.75;;;11.98;75.53
74613;BME280;63119;51.788;8.824;2023-03-23T05:49:39;98844.72;;;12.00;75.31
74613;BME280;63119;51.788;8.824;2023-03-23T05:52:04;98828.94;;;12.09;75.15
74613;BME280;63119;51.788;8.824;2023-03-23T05:54:29;98826.28;;;12.09;75.11
74613;BME280;63119;51.788;8.824;2023-03-23T05:56:54;98822.94;;;12.07;75.86
74613;BME280;63119;51.788;8.824;2023-03-23T05:59:20;98821.56;;;12.02;75.72
74613;BME280;63119;51.788;8.824;2023-03-23T06:01:46;98833.41;;;12.08;75.96
74613;BME280;63119;51.788;8.824;2023-03-23T06:04:11;98834.66;;;12.04;76.33
74613;BME280;63119;51.788;8.824;2023-03-23T06:06:37;98838.41;;;12.11;75.70
74613;BME280;63119;51.788;8.824;2023-03-23T06:09:02;98836.88;;;12.09;76.11
74613;BME280;63119;51.788;8.824;2023-03-23T06:11:28;98845.13;;;12.05;75.99
74613;BME280;63119;51.788;8.824;2023-03-23T06:13:54;98851.97;;;12.08;76.40
74613;BME280;63119;51.788;8.824;2023-03-23T06:16:19;98847.22;;;12.12;76.17
74613;BME280;63119;51.788;8.824;2023-03-23T06:18:45;98850.28;;;12.07;75.95
74613;BME280;63119;51.788;8.824;2023-03-23T06:21:11;98861.88;;;12.16;75.72
74613;BME280;63119;51.788;8.824;2023-03-23T06:23:37;98849.03;;;12.21;75.09
74613;BME280;63119;51.788;8.824;2023-03-23T06:26:06;98860.59;;;12.29;75.04
74613;BME280;63119;51.788;8.824;2023-03-23T06:28:32;98855.28;;;12.29;75.13
74613;BME280;63119;51.788;8.824;2023-03-23T06:31:02;98867.56;;;12.40;74.93
74613;BME280;63119;51.788;8.824;2023-03-23T06:33:29;98856.78;;;12.41;75.04
74613;BME280;63119;51.788;8.824;2023-03-23T06:35:55;98865.59;;;12.42;74.45
74613;BME280;63119;51.788;8.824;2023-03-23T06:38:21;98866.16;;;12.45;74.19
74613;BME280;63119;51.788;8.824;2023-03-23T06:40:47;98859.72;;;12.38;74.87
74613;BME280;63119;51.788;8.824;2023-03-23T06:43:13;98856.66;;;12.43;74.12
74613;BME280;63119;51.788;8.824;2023-03-23T06:45:39;98864.47;;;12.44;74.49
74613;BME280;63119;51.788;8.824;2023-03-23T06:48:05;98863.63;;;12.44;74.96
74613;BME280;63119;51.788;8.824;2023-03-23T06:50:30;98871.75;;;12.42;75.32
74613;BME280;63119;51.788;8.824;2023-03-23T06:52:56;98868.81;;;12.36;74.20
74613;BME280;63119;51.788;8.824;2023-03-23T06:55:22;98877.03;;;12.42;74.26
74613;BME280;63119;51.788;8.824;2023-03-23T06:57:47;98859.44;;;12.41;74.80
74613;BME280;63119;51.788;8.824;2023-03-23T07:00:13;98867.66;;;12.48;74.34
74613;BME280;63119;51.788;8.824;2023-03-23T07:02:39;98860.84;;;12.45;74.29
74613;BME280;63119;51.788;8.824;2023-03-23T07:05:06;98863.19;;;12.58;73.72
74613;BME280;63119;51.788;8.824;2023-03-23T07:07:31;98868.88;;;12.63;73.37
74613;BME280;63119;51.788;8.824;2023-03-23T07:09:56;98880.03;;;12.76;72.78
74613;BME280;63119;51.788;8.824;2023-03-23T07:12:23;98875.94;;;12.91;72.17
74613;BME280;63119;51.788;8.824;2023-03-23T07:14:48;98879.50;;;13.09;71.77
74613;BME280;63119;51.788;8.824;2023-03-23T07:17:14;98875.59;;;13.04;71.70
74613;BME280;63119;51.788;8.824;2023-03-23T07:19:40;98874.78;;;12.94;72.01
74613;BME280;63119;51.788;8.824;2023-03-23T07:22:06;98878.00;;;12.97;71.71
74613;BME280;63119;51.788;8.824;2023-03-23T07:24:32;98882.19;;;13.00;71.88
74613;BME280;63119;51.788;8.824;2023-03-23T07:26:58;98879.66;;;12.98;71.38
74613;BME280;63119;51.788;8.824;2023-03-23T07:29:23;98879.53;;;13.00;71.45
74613;BME280;63119;51.788;8.824;2023-03-23T07:31:49;98876.03;;;12.99;72.27
74613;BME280;63119;51.788;8.824;2023-03-23T07:34:14;98881.72;;;13.04;71.30
74613;BME280;63119;51.788;8.824;2023-03-23T07:36:39;98882.72;;;13.03;71.16
74613;BME280;63119;51.788;8.824;2023-03-23T07:39:05;98878.78;;;13.07;71.07
74613;BME280;63119;51.788;8.824;2023-03-23T07:41:31;98880.50;;;13.08;70.71
74613;BME280;63119;51.788;8.824;2023-03-23T07:43:57;98885.66;;;13.10;71.47
74613;BME280;63119;51.788;8.824;2023-03-23T07:46:22;98881.16;;;13.10;70.69
74613;BME280;63119;51.788;8.824;2023-03-23T07:48:47;98896.94;;;13.22;70.77
74613;BME280;63119;51.788;8.824;2023-03-23T07:51:14;98895.50;;;13.27;71.28
74613;BME280;63119;51.788;8.824;2023-03-23T07:53:41;98886.09;;;13.33;70.20
74613;BME280;63119;51.788;8.824;2023-03-23T07:56:09;98899.94;;;13.36;70.01
74613;BME280;63119;51.788;8.824;2023-03-23T07:58:35;98903.81;;;13.42;69.77
74613;BME280;63119;51.788;8.824;2023-03-23T08:01:00;98893.47;;;13.39;70.03
74613;BME280;63119;51.788;8.824;2023-03-23T08:03:25;98900.19;;;13.43;69.41
74613;BME280;63119;51.788;8.824;2023-03-23T08:05:51;98902.13;;;13.41;68.92
74613;BME280;63119;51.788;8.824;2023-03-23T08:08:16;98909.41;;;13.39;68.94
74613;BME280;63119;51.788;8.824;2023-03-23T08:10:41;98895.91;;;13.50;69.27
74613;BME280;63119;51.788;8.824;2023-03-23T08:13:07;98890.91;;;13.47;68.75
74613;BME280;63119;51.788;8.824;2023-03-23T08:15:33;98888.25;;;13.47;68.61
74613;BME280;63119;51.788;8.824;2023-03-23T08:18:02;98901.78;;;13.53;67.84
74613;BME280;63119;51.788;8.824;2023-03-23T08:20:27;98905.53;;;13.60;68.10
74613;BME280;63119;51.788;8.824;2023-03-23T08:22:54;98903.41;;;13.64;67.96
74613;BME280;63119;51.788;8.824;2023-03-23T08:25:20;98905.00;;;13.75;67.57
74613;BME280;63119;51.788;8.824;2023-03-23T08:27:45;98899.94;;;13.81;67.05
74613;BME280;63119;51.788;8.824;2023-03-23T08:30:13;98896.81;;;13.86;67.17
74613;BME280;63119;51.788;8.824;2023-03-23T08:32:39;98903.50;;;13.90;66.51
74613;BME280;63119;51.788;8.824;2023-03-23T08:35:05;98896.22;;;13.92;65.97
74613;BME280;63119;51.788;8.824;2023-03-23T08:37:31;98907.78;;;14.00;66.41
74613;BME280;63119;51.788;8.824;2023-03-23T08:39:56;98906.38;;;13.96;65.73
74613;BME280;63119;51.788;8.824;2023-03-23T08:42:23;98901.84;;;13.89;65.46
74613;BME280;63119;51.788;8.824;2023-03-23T08:44:49;98911.63;;;13.88;66.04
74613;BME280;63119;51.788;8.824;2023-03-23T08:47:15;98908.69;;;13.91;66.13
74613;BME280;63119;51.788;8.824;2023-03-23T08:49:41;98912.63;;;13.87;65.32
74613;BME280;63119;51.788;8.824;2023-03-23T08:52:07;98911.34;;;13.91;65.21
74613;BME280;63119;51.788;8.824;2023-03-23T08:54:33;98911.63;;;13.88;65.61
74613;BME280;63119;51.788;8.824;2023-03-23T08:57:02;98904.34;;;13.90;65.79
74613;BME280;63119;51.788;8.824;2023-03-23T08:59:28;98909.03;;;13.96;65.83
74613;BME280;63119;51.788;8.824;2023-03-23T09:01:54;98913.53;;;13.96;65.70
74613;BME280;63119;51.788;8.824;2023-03-23T09:04:19;98914.97;;;13.90;65.64
74613;BME280;63119;51.788;8.824;2023-03-23T09:06:45;98914.13;;;13.90;65.20
74613;BME280;63119;51.788;8.824;2023-03-23T09:09:11;98914.53;;;13.95;65.30
74613;BME280;63119;51.788;8.824;2023-03-23T09:11:37;98921.59;;;14.04;64.63
74613;BME280;63119;51.788;8.824;2023-03-23T09:14:04;98915.44;;;14.03;64.88
74613;BME280;63119;51.788;8.824;2023-03-23T09:16:30;98907.38;;;14.13;64.64
74613;BME280;63119;51.788;8.824;2023-03-23T09:18:56;98903.41;;;14.17;64.59
74613;BME280;63119;51.788;8.824;2023-03-23T09:21:22;98912.69;;;14.31;64.41
74613;BME280;63119;51.788;8.824;2023-03-23T09:23:48;98915.91;;;14.34;63.96
74613;BME280;63119;51.788;8.824;2023-03-23T09:26:13;98912.25;;;14.35;63.55
74613;BME280;63119;51.788;8.824;2023-03-23T09:28:39;98906.41;;;14.32;63.30
74613;BME280;63119;51.788;8.824;2023-03-23T09:31:05;98918.81;;;14.41;63.83
74613;BME280;63119;51.788;8.824;2023-03-23T09:33:30;98920.78;;;14.39;62.78
74613;BME280;63119;51.788;8.824;2023-03-23T09:35:58;98935.38;;;14.35;63.17
74613;BME280;63119;51.788;8.824;2023-03-23T09:38:24;98936.59;;;14.22;63.46
74613;BME280;63119;51.788;8.824;2023-03-23T09:41:35;98940.53;;;14.18;63.78
74613;BME280;63119;51.788;8.824;2023-03-23T09:44:19;98941.28;;;14.29;63.28
74613;BME280;63119;51.788;8.824;2023-03-23T09:49:50;98955.28;;;14.31;63.25
74613;BME280;63119;51.788;8.824;2023-03-23T09:52:18;98960.53;;;14.22;63.01
74613;BME280;63119;51.788;8.824;2023-03-23T09:54:48;98959.53;;;14.23;63.28
74613;BME280;63119;51.788;8.824;2023-03-23T09:57:28;98974.09;;;14.19;63.37
74613;BME280;63119;51.788;8.824;2023-03-23T10:00:15;98960.38;;;14.24;62.70
74613;BME280;63119;51.788;8.824;2023-03-23T10:02:52;98957.50;;;14.35;62.38
74613;BME280;63119;51.788;8.824;2023-03-23T10:05:40;98957.72;;;14.42;61.68
74613;BME280;63119;51.788;8.824;2023-03-23T10:08:14;98972.09;;;14.31;61.29
74613;BME280;63119;51.788;8.824;2023-03-23T10:16:24;98960.38;;;14.42;61.45
74613;BME280;63119;51.788;8.824;2023-03-23T10:19:27;98965.31;;;14.54;60.93
74613;BME280;63119;51.788;8.824;2023-03-23T10:21:50;98969.06;;;14.44;61.29
74613;BME280;63119;51.788;8.824;2023-03-23T10:24:20;98972.63;;;14.52;61.25
74613;BME280;63119;51.788;8.824;2023-03-23T10:26:55;98962.13;;;14.51;61.79
74613;BME280;63119;51.788;8.824;2023-03-23T10:29:29;98965.88;;;14.40;61.66
74613;BME280;63119;51.788;8.824;2023-03-23T10:32:01;98949.28;;;14.46;60.99
74613;BME280;63119;51.788;8.824;2023-03-23T10:34:44;98956.56;;;14.62;61.09
74613;BME280;63119;51.788;8.824;2023-03-23T10:37:17;98956.56;;;14.62;60.62
74613;BME280;63119;51.788;8.824;2023-03-23T10:39:53;98950.50;;;14.77;60.35
74613;BME280;63119;51.788;8.824;2023-03-23T10:42:32;98956.84;;;14.76;60.76
74613;BME280;63119;51.788;8.824;2023-03-23T10:45:19;98954.09;;;14.86;59.76
74613;BME280;63119;51.788;8.824;2023-03-23T10:47:52;98946.19;;;15.02;59.42
74613;BME280;63119;51.788;8.824;2023-03-23T10:50:27;98948.34;;;15.32;58.68
74613;BME280;63119;51.788;8.824;2023-03-23T10:52:57;98950.22;;;15.40;57.67
74613;BME280;63119;51.788;8.824;2023-03-23T10:55:23;98948.81;;;15.54;57.20
74613;BME280;63119;51.788;8.824;2023-03-23T10:58:02;98936.91;;;15.74;57.11
74613;BME280;63119;51.788;8.824;2023-03-23T11:00:29;98954.50;;;15.59;57.91
74613;BME280;63119;51.788;8.824;2023-03-23T11:03:04;98948.31;;;15.50;56.54
74613;BME280;63119;51.788;8.824;2023-03-23T11:05:56;98967.31;;;15.55;57.17
74613;BME280;63119;51.788;8.824;2023-03-23T11:08:29;98948.34;;;15.32;57.42
74613;BME280;63119;51.788;8.824;2023-03-23T11:10:59;98943.31;;;15.21;56.66
74613;BME280;63119;51.788;8.824;2023-03-23T11:13:32;98944.41;;;15.11;56.73
74613;BME280;63119;51.788;8.824;2023-03-23T11:15:58;98955.13;;;15.19;56.79
74613;BME280;63119;51.788;8.824;2023-03-23T11:18:41;98952.91;;;15.14;56.90
74613;BME280;63119;51.788;8.824;2023-03-23T11:21:08;98957.91;;;15.09;57.16
74613;BME280;63119;51.788;8.824;2023-03-23T11:23:39;98966.41;;;15.13;57.10
74613;BME280;63119;51.788;8.824;2023-03-23T11:26:29;98961.53;;;15.08;57.34
74613;BME280;63119;51.788;8.824;2023-03-23T11:29:14;98975.13;;;14.97;57.06
74613;BME280;63119;51.788;8.824;2023-03-23T11:31:44;98972.28;;;14.99;57.97
74613;BME280;63119;51.788;8.824;2023-03-23T11:34:14;98973.50;;;14.78;57.49
74613;BME280;63119;51.788;8.824;2023-03-23T11:36:46;98971.97;;;14.76;58.40
74613;BME280;63119;51.788;8.824;2023-03-23T11:39:29;98980.53;;;14.62;58.53
74613;BME280;63119;51.788;8.824;2023-03-23T11:41:57;98977.19;;;14.60;58.51
74613;BME280;63119;51.788;8.824;2023-03-23T11:44:26;98983.94;;;14.72;58.50
74613;BME280;63119;51.788;8.824;2023-03-23T11:47:11;98985.16;;;14.60;58.14
74613;BME280;63119;51.788;8.824;2023-03-23T11:50:10;98979.78;;;14.52;59.93
74613;BME280;63119;51.788;8.824;2023-03-23T11:52:45;98969.75;;;14.46;59.71
74613;BME280;63119;51.788;8.824;2023-03-23T11:55:26;98998.03;;;14.47;59.38
74613;BME280;63119;51.788;8.824;2023-03-23T11:57:52;98988.44;;;14.36;59.57
74613;BME280;63119;51.788;8.824;2023-03-23T12:00:21;98994.97;;;14.42;59.72
74613;BME280;63119;51.788;8.824;2023-03-23T12:02:59;99011.25;;;14.39;60.36
74613;BME280;63119;51.788;8.824;2023-03-23T12:05:32;99020.53;;;14.07;64.43
74613;BME280;63119;51.788;8.824;2023-03-23T12:08:26;99024.06;;;13.44;68.24
74613;BME280;63119;51.788;8.824;2023-03-23T12:11:08;99041.63;;;12.98;71.22
74613;BME280;63119;51.788;8.824;2023-03-23T12:19:03;99039.03;;;12.60;74.55
74613;BME280;63119;51.788;8.824;2023-03-23T12:21:50;99036.78;;;12.65;74.26
74613;BME280;63119;51.788;8.824;2023-03-23T12:24:46;99030.66;;;12.55;74.34
74613;BME280;63119;51.788;8.824;2023-03-23T12:36:10;99022.53;;;12.76;73.13
74613;BME280;63119;51.788;8.824;2023-03-23T12:41:31;99027.44;;;12.61;72.77
74613;BME280;63119;51.788;8.824;2023-03-23T12:44:06;99027.00;;;12.66;72.34
74613;BME280;63119;51.788;8.824;2023-03-23T12:46:56;99033.72;;;12.60;72.87
74613;BME280;63119;51.788;8.824;2023-03-23T12:49:34;99033.84;;;12.68;72.19
74613;BME280;63119;51.788;8.824;2023-03-23T12:52:12;99045.59;;;12.75;73.03
74613;BME280;63119;51.788;8.824;2023-03-23T12:54:57;99037.34;;;12.78;72.41
74613;BME280;63119;51.788;8.824;2023-03-23T12:57:39;99030.78;;;12.73;72.89
74613;BME280;63119;51.788;8.824;2023-03-23T13:00:14;99037.75;;;12.83;72.88
74613;BME280;63119;51.788;8.824;2023-03-23T13:05:40;99053.09;;;12.80;72.46
74613;BME280;63119;51.788;8.824;2023-03-23T13:08:14;99046.28;;;12.77;72.99
74613;BME280;63119;51.788;8.824;2023-03-23T13:10:51;99047.13;;;12.78;73.00
74613;BME280;63119;51.788;8.824;2023-03-23T13:13:21;99045.19;;;12.70;74.69
74613;BME280;63119;51.788;8.824;2023-03-23T13:16:09;99051.47;;;12.79;74.71
74613;BME280;63119;51.788;8.824;2023-03-23T13:21:25;99058.84;;;12.66;76.50
74613;BME280;63119;51.788;8.824;2023-03-23T13:23:56;99050.59;;;12.78;76.15
74613;BME280;63119;51.788;8.824;2023-03-23T13:26:23;99040.97;;;12.77;76.52
74613;BME280;63119;51.788;8.824;2023-03-23T13:31:30;99042.09;;;12.65;77.24
74613;BME280;63119;51.788;8.824;2023-03-23T13:34:01;99042.53;;;12.60;77.66
74613;BME280;63119;51.788;8.824;2023-03-23T13:36:36;99044.06;;;12.63;77.96
74613;BME280;63119;51.788;8.824;2023-03-23T13:39:05;99049.50;;;12.52;78.87
74613;BME280;63119;51.788;8.824;2023-03-23T13:41:33;99044.44;;;12.58;79.09
74613;BME280;63119;51.788;8.824;2023-03-23T13:44:14;99050.47;;;12.51;79.93
74613;BME280;63119;51.788;8.824;2023-03-23T13:46:40;99055.78;;;12.51;78.64
74613;BME280;63119;51.788;8.824;2023-03-23T13:56:57;99057.03;;;12.47;80.75
74613;BME280;63119;51.788;8.824;2023-03-23T14:01:52;99046.84;;;12.52;80.14
74613;BME280;63119;51.788;8.824;2023-03-23T14:04:18;99038.59;;;12.45;80.53